Weather at Mc Clellan-Palomar Airport

Public forecast

Using degrees Fahrenheit for public forecast. Weather courtesy of forecast.io.

Current aviation weather report (METAR) for Mc Clellan-Palomar Airport

Retrieved 2021/07/27 08:53 UTC (35 minutes ago):

KCRQ 270853Z AUTO 32004KT 8SM OVC007 A2994 RMK AO2 SLPNO 58007

Aviation forecast (TAF) for Mc Clellan-Palomar Airport

Retrieved 2021/07/27 06:22 UTC (3 hours ago):

TAF KCRQ 270520Z 2706/2806 VRB04KT P6SM OVC007 TEMPO 2713/2715 1SM BR OVC003 FM271800 26007KT 6SM HZ BKN012